sensor_id;sensor_type;location;lat;lon;timestamp;P1;durP1;ratioP1;P2;durP2;ratioP2
11052;SDS011;55230;42.602;23.470;2022-10-31T00:01:48;5.43;;;3.17;;
11052;SDS011;55230;42.602;23.470;2022-10-31T00:04:16;6.40;;;3.53;;
11052;SDS011;55230;42.602;23.470;2022-10-31T00:06:43;5.07;;;3.33;;
11052;SDS011;55230;42.602;23.470;2022-10-31T00:09:10;4.80;;;3.20;;
11052;SDS011;55230;42.602;23.470;2022-10-31T00:11:37;4.73;;;3.13;;
11052;SDS011;55230;42.602;23.470;2022-10-31T00:14:04;3.80;;;3.20;;
11052;SDS011;55230;42.602;23.470;2022-10-31T00:16:31;5.53;;;3.40;;
11052;SDS011;55230;42.602;23.470;2022-10-31T00:18:59;5.57;;;3.33;;
11052;SDS011;55230;42.602;23.470;2022-10-31T00:21:28;5.87;;;3.47;;
11052;SDS011;55230;42.602;23.470;2022-10-31T00:23:56;8.10;;;3.43;;
11052;SDS011;55230;42.602;23.470;2022-10-31T00:26:24;5.37;;;3.37;;
11052;SDS011;55230;42.602;23.470;2022-10-31T00:28:51;6.80;;;3.43;;
11052;SDS011;55230;42.602;23.470;2022-10-31T00:31:17;4.83;;;3.30;;
11052;SDS011;55230;42.602;23.470;2022-10-31T00:33:44;5.53;;;3.37;;
11052;SDS011;55230;42.602;23.470;2022-10-31T00:36:12;5.07;;;3.23;;
11052;SDS011;55230;42.602;23.470;2022-10-31T00:38:41;4.80;;;3.40;;
11052;SDS011;55230;42.602;23.470;2022-10-31T00:41:09;4.70;;;3.47;;
11052;SDS011;55230;42.602;23.470;2022-10-31T00:43:36;5.57;;;3.63;;
11052;SDS011;55230;42.602;23.470;2022-10-31T00:46:03;6.30;;;3.70;;
11052;SDS011;55230;42.602;23.470;2022-10-31T00:48:30;4.80;;;3.50;;
11052;SDS011;55230;42.602;23.470;2022-10-31T00:50:57;6.47;;;3.97;;
11052;SDS011;55230;42.602;23.470;2022-10-31T00:53:23;6.40;;;3.90;;
11052;SDS011;55230;42.602;23.470;2022-10-31T00:55:51;5.53;;;3.60;;
11052;SDS011;55230;42.602;23.470;2022-10-31T00:58:18;5.23;;;3.70;;
11052;SDS011;55230;42.602;23.470;2022-10-31T01:00:46;5.33;;;3.50;;
11052;SDS011;55230;42.602;23.470;2022-10-31T01:03:19;5.00;;;3.73;;
11052;SDS011;55230;42.602;23.470;2022-10-31T01:05:54;5.33;;;3.53;;
11052;SDS011;55230;42.602;23.470;2022-10-31T01:08:22;4.63;;;3.60;;
11052;SDS011;55230;42.602;23.470;2022-10-31T01:10:58;5.30;;;3.47;;
11052;SDS011;55230;42.602;23.470;2022-10-31T01:13:30;7.47;;;3.33;;
11052;SDS011;55230;42.602;23.470;2022-10-31T01:15:57;5.20;;;3.33;;
11052;SDS011;55230;42.602;23.470;2022-10-31T01:18:25;6.17;;;3.67;;
11052;SDS011;55230;42.602;23.470;2022-10-31T01:20:59;4.37;;;3.30;;
11052;SDS011;55230;42.602;23.470;2022-10-31T01:23:27;5.47;;;3.87;;
11052;SDS011;55230;42.602;23.470;2022-10-31T01:26:06;5.33;;;3.83;;
11052;SDS011;55230;42.602;23.470;2022-10-31T01:28:35;5.97;;;3.20;;
11052;SDS011;55230;42.602;23.470;2022-10-31T01:31:03;5.00;;;3.30;;
11052;SDS011;55230;42.602;23.470;2022-10-31T01:33:32;5.03;;;3.57;;
11052;SDS011;55230;42.602;23.470;2022-10-31T01:35:58;5.30;;;3.70;;
11052;SDS011;55230;42.602;23.470;2022-10-31T01:38:25;6.10;;;3.83;;
11052;SDS011;55230;42.602;23.470;2022-10-31T01:40:52;5.60;;;4.23;;
11052;SDS011;55230;42.602;23.470;2022-10-31T01:43:20;6.33;;;3.60;;
11052;SDS011;55230;42.602;23.470;2022-10-31T01:45:50;5.37;;;3.90;;
11052;SDS011;55230;42.602;23.470;2022-10-31T01:48:20;5.53;;;3.80;;
11052;SDS011;55230;42.602;23.470;2022-10-31T01:50:56;5.13;;;3.73;;
11052;SDS011;55230;42.602;23.470;2022-10-31T01:53:23;4.33;;;3.60;;
11052;SDS011;55230;42.602;23.470;2022-10-31T01:55:50;5.47;;;3.60;;
11052;SDS011;55230;42.602;23.470;2022-10-31T01:58:18;6.23;;;3.90;;
11052;SDS011;55230;42.602;23.470;2022-10-31T02:00:50;7.07;;;3.70;;
11052;SDS011;55230;42.602;23.470;2022-10-31T02:03:20;4.30;;;3.90;;
11052;SDS011;55230;42.602;23.470;2022-10-31T02:05:48;5.63;;;4.20;;
11052;SDS011;55230;42.602;23.470;2022-10-31T02:08:17;4.57;;;3.70;;
11052;SDS011;55230;42.602;23.470;2022-10-31T02:10:47;5.13;;;3.90;;
11052;SDS011;55230;42.602;23.470;2022-10-31T02:13:14;4.63;;;3.73;;
11052;SDS011;55230;42.602;23.470;2022-10-31T02:15:44;8.73;;;4.93;;
11052;SDS011;55230;42.602;23.470;2022-10-31T02:18:13;5.67;;;4.57;;
11052;SDS011;55230;42.602;23.470;2022-10-31T02:20:42;6.53;;;4.10;;
11052;SDS011;55230;42.602;23.470;2022-10-31T02:26:27;8.93;;;4.37;;
11052;SDS011;55230;42.602;23.470;2022-10-31T02:32:33;7.33;;;4.57;;
11052;SDS011;55230;42.602;23.470;2022-10-31T02:35:10;7.57;;;4.87;;
11052;SDS011;55230;42.602;23.470;2022-10-31T02:37:45;6.83;;;4.27;;
11052;SDS011;55230;42.602;23.470;2022-10-31T02:40:19;7.03;;;4.70;;
11052;SDS011;55230;42.602;23.470;2022-10-31T02:42:51;6.40;;;4.17;;
11052;SDS011;55230;42.602;23.470;2022-10-31T02:45:26;6.30;;;4.57;;
11052;SDS011;55230;42.602;23.470;2022-10-31T02:47:59;5.50;;;4.17;;
11052;SDS011;55230;42.602;23.470;2022-10-31T02:50:31;7.57;;;4.50;;
11052;SDS011;55230;42.602;23.470;2022-10-31T02:53:01;6.33;;;4.27;;
11052;SDS011;55230;42.602;23.470;2022-10-31T02:55:48;7.93;;;4.50;;
11052;SDS011;55230;42.602;23.470;2022-10-31T02:58:21;8.00;;;4.50;;
11052;SDS011;55230;42.602;23.470;2022-10-31T03:00:58;4.50;;;3.87;;
11052;SDS011;55230;42.602;23.470;2022-10-31T03:03:39;7.97;;;4.20;;
11052;SDS011;55230;42.602;23.470;2022-10-31T03:06:20;6.57;;;4.40;;
11052;SDS011;55230;42.602;23.470;2022-10-31T03:08:54;5.73;;;4.07;;
11052;SDS011;55230;42.602;23.470;2022-10-31T03:11:28;6.47;;;4.47;;
11052;SDS011;55230;42.602;23.470;2022-10-31T03:14:00;6.10;;;4.30;;
11052;SDS011;55230;42.602;23.470;2022-10-31T03:16:48;7.80;;;4.50;;
11052;SDS011;55230;42.602;23.470;2022-10-31T03:19:19;4.90;;;4.40;;
11052;SDS011;55230;42.602;23.470;2022-10-31T03:21:52;6.00;;;4.60;;
11052;SDS011;55230;42.602;23.470;2022-10-31T03:24:22;18.50;;;10.90;;
11052;SDS011;55230;42.602;23.470;2022-10-31T03:26:54;10.27;;;6.40;;
11052;SDS011;55230;42.602;23.470;2022-10-31T03:29:24;7.43;;;4.93;;
11052;SDS011;55230;42.602;23.470;2022-10-31T03:31:55;5.50;;;4.10;;
11052;SDS011;55230;42.602;23.470;2022-10-31T03:34:27;4.53;;;3.93;;
11052;SDS011;55230;42.602;23.470;2022-10-31T03:36:57;5.73;;;3.93;;
11052;SDS011;55230;42.602;23.470;2022-10-31T03:39:26;5.53;;;4.37;;
11052;SDS011;55230;42.602;23.470;2022-10-31T03:41:54;9.87;;;4.57;;
11052;SDS011;55230;42.602;23.470;2022-10-31T03:44:26;6.87;;;4.10;;
11052;SDS011;55230;42.602;23.470;2022-10-31T03:46:55;6.00;;;4.30;;
11052;SDS011;55230;42.602;23.470;2022-10-31T03:49:22;5.87;;;4.47;;
11052;SDS011;55230;42.602;23.470;2022-10-31T03:51:52;8.00;;;4.50;;
11052;SDS011;55230;42.602;23.470;2022-10-31T03:54:25;8.50;;;4.60;;
11052;SDS011;55230;42.602;23.470;2022-10-31T03:56:59;6.63;;;4.27;;
11052;SDS011;55230;42.602;23.470;2022-10-31T03:59:34;6.13;;;4.50;;
11052;SDS011;55230;42.602;23.470;2022-10-31T04:02:06;6.13;;;4.60;;
11052;SDS011;55230;42.602;23.470;2022-10-31T04:04:36;6.70;;;4.07;;
11052;SDS011;55230;42.602;23.470;2022-10-31T04:07:05;8.10;;;4.63;;
11052;SDS011;55230;42.602;23.470;2022-10-31T04:09:35;4.63;;;4.00;;
11052;SDS011;55230;42.602;23.470;2022-10-31T04:12:04;8.30;;;4.67;;
11052;SDS011;55230;42.602;23.470;2022-10-31T04:14:35;7.03;;;4.30;;
11052;SDS011;55230;42.602;23.470;2022-10-31T04:17:07;7.17;;;4.53;;
11052;SDS011;55230;42.602;23.470;2022-10-31T04:19:37;8.17;;;4.80;;
11052;SDS011;55230;42.602;23.470;2022-10-31T04:22:05;8.10;;;5.40;;
11052;SDS011;55230;42.602;23.470;2022-10-31T04:24:32;6.80;;;5.97;;
11052;SDS011;55230;42.602;23.470;2022-10-31T04:26:59;7.37;;;5.30;;
11052;SDS011;55230;42.602;23.470;2022-10-31T04:29:26;8.90;;;4.90;;
11052;SDS011;55230;42.602;23.470;2022-10-31T04:31:53;7.93;;;5.40;;
11052;SDS011;55230;42.602;23.470;2022-10-31T04:34:19;8.83;;;6.03;;
11052;SDS011;55230;42.602;23.470;2022-10-31T04:36:46;6.50;;;5.30;;
11052;SDS011;55230;42.602;23.470;2022-10-31T04:39:14;8.93;;;5.20;;
11052;SDS011;55230;42.602;23.470;2022-10-31T04:41:41;8.77;;;6.13;;
11052;SDS011;55230;42.602;23.470;2022-10-31T04:44:08;8.20;;;5.47;;
11052;SDS011;55230;42.602;23.470;2022-10-31T04:46:34;6.60;;;5.50;;
11052;SDS011;55230;42.602;23.470;2022-10-31T04:49:01;7.50;;;5.07;;
11052;SDS011;55230;42.602;23.470;2022-10-31T04:51:28;9.67;;;5.30;;
11052;SDS011;55230;42.602;23.470;2022-10-31T04:53:55;9.40;;;5.47;;
11052;SDS011;55230;42.602;23.470;2022-10-31T04:56:23;8.13;;;5.73;;
11052;SDS011;55230;42.602;23.470;2022-10-31T04:58:50;7.37;;;6.30;;
11052;SDS011;55230;42.602;23.470;2022-10-31T05:01:16;14.23;;;6.50;;
11052;SDS011;55230;42.602;23.470;2022-10-31T05:03:43;9.07;;;6.30;;
11052;SDS011;55230;42.602;23.470;2022-10-31T05:06:10;7.17;;;5.60;;
11052;SDS011;55230;42.602;23.470;2022-10-31T05:08:36;7.50;;;6.43;;
11052;SDS011;55230;42.602;23.470;2022-10-31T05:11:03;8.03;;;5.70;;
11052;SDS011;55230;42.602;23.470;2022-10-31T05:13:32;7.40;;;5.30;;
11052;SDS011;55230;42.602;23.470;2022-10-31T05:15:59;9.10;;;6.23;;
11052;SDS011;55230;42.602;23.470;2022-10-31T05:18:26;9.57;;;6.07;;
11052;SDS011;55230;42.602;23.470;2022-10-31T05:20:53;9.03;;;5.70;;
11052;SDS011;55230;42.602;23.470;2022-10-31T05:23:19;6.00;;;5.20;;
11052;SDS011;55230;42.602;23.470;2022-10-31T05:25:46;9.17;;;6.13;;
11052;SDS011;55230;42.602;23.470;2022-10-31T05:28:13;8.67;;;6.67;;
11052;SDS011;55230;42.602;23.470;2022-10-31T05:30:41;14.77;;;11.00;;
11052;SDS011;55230;42.602;23.470;2022-10-31T05:33:08;11.57;;;6.37;;
11052;SDS011;55230;42.602;23.470;2022-10-31T05:35:35;7.67;;;6.50;;
11052;SDS011;55230;42.602;23.470;2022-10-31T05:38:01;8.67;;;6.00;;
11052;SDS011;55230;42.602;23.470;2022-10-31T05:40:28;8.83;;;6.40;;
11052;SDS011;55230;42.602;23.470;2022-10-31T05:42:56;11.03;;;6.73;;
11052;SDS011;55230;42.602;23.470;2022-10-31T05:45:23;12.80;;;7.10;;
11052;SDS011;55230;42.602;23.470;2022-10-31T05:47:52;11.00;;;6.57;;
11052;SDS011;55230;42.602;23.470;2022-10-31T05:50:19;10.60;;;7.43;;
11052;SDS011;55230;42.602;23.470;2022-10-31T05:52:46;10.80;;;7.73;;
11052;SDS011;55230;42.602;23.470;2022-10-31T05:55:13;9.97;;;6.97;;
11052;SDS011;55230;42.602;23.470;2022-10-31T05:57:40;10.27;;;7.57;;
11052;SDS011;55230;42.602;23.470;2022-10-31T06:00:08;11.67;;;9.17;;
11052;SDS011;55230;42.602;23.470;2022-10-31T06:02:35;7.90;;;6.97;;
11052;SDS011;55230;42.602;23.470;2022-10-31T06:05:04;10.40;;;7.53;;
11052;SDS011;55230;42.602;23.470;2022-10-31T06:07:34;8.67;;;7.40;;
11052;SDS011;55230;42.602;23.470;2022-10-31T06:10:02;12.20;;;8.00;;
11052;SDS011;55230;42.602;23.470;2022-10-31T06:12:30;14.07;;;7.90;;
11052;SDS011;55230;42.602;23.470;2022-10-31T06:14:57;8.70;;;7.07;;
11052;SDS011;55230;42.602;23.470;2022-10-31T06:17:24;13.70;;;9.60;;
11052;SDS011;55230;42.602;23.470;2022-10-31T06:19:51;12.93;;;9.33;;
11052;SDS011;55230;42.602;23.470;2022-10-31T06:22:19;12.73;;;8.27;;
11052;SDS011;55230;42.602;23.470;2022-10-31T06:24:46;23.77;;;16.70;;
11052;SDS011;55230;42.602;23.470;2022-10-31T06:27:12;20.03;;;13.13;;
11052;SDS011;55230;42.602;23.470;2022-10-31T06:29:39;10.87;;;9.27;;
11052;SDS011;55230;42.602;23.470;2022-10-31T06:32:08;14.60;;;11.53;;
11052;SDS011;55230;42.602;23.470;2022-10-31T06:34:36;10.67;;;8.90;;
11052;SDS011;55230;42.602;23.470;2022-10-31T06:37:03;13.10;;;9.13;;
11052;SDS011;55230;42.602;23.470;2022-10-31T06:39:32;13.40;;;9.80;;
11052;SDS011;55230;42.602;23.470;2022-10-31T06:41:59;15.53;;;10.07;;
11052;SDS011;55230;42.602;23.470;2022-10-31T06:44:26;14.90;;;9.80;;
11052;SDS011;55230;42.602;23.470;2022-10-31T06:46:53;17.13;;;11.93;;
11052;SDS011;55230;42.602;23.470;2022-10-31T06:49:19;12.60;;;9.77;;
11052;SDS011;55230;42.602;23.470;2022-10-31T06:51:47;13.13;;;9.70;;
11052;SDS011;55230;42.602;23.470;2022-10-31T06:54:14;13.17;;;9.27;;
11052;SDS011;55230;42.602;23.470;2022-10-31T06:56:45;12.03;;;9.60;;
11052;SDS011;55230;42.602;23.470;2022-10-31T06:59:12;11.53;;;8.73;;
11052;SDS011;55230;42.602;23.470;2022-10-31T07:01:39;48.33;;;12.47;;
11052;SDS011;55230;42.602;23.470;2022-10-31T07:04:06;14.23;;;8.93;;
11052;SDS011;55230;42.602;23.470;2022-10-31T07:06:34;14.00;;;8.77;;
11052;SDS011;55230;42.602;23.470;2022-10-31T07:09:00;15.07;;;8.83;;
11052;SDS011;55230;42.602;23.470;2022-10-31T07:11:27;12.13;;;8.63;;
11052;SDS011;55230;42.602;23.470;2022-10-31T07:13:55;12.80;;;9.33;;
11052;SDS011;55230;42.602;23.470;2022-10-31T07:16:22;14.20;;;8.77;;
11052;SDS011;55230;42.602;23.470;2022-10-31T07:18:49;11.67;;;9.17;;
11052;SDS011;55230;42.602;23.470;2022-10-31T07:21:16;11.77;;;9.00;;
11052;SDS011;55230;42.602;23.470;2022-10-31T07:23:43;13.70;;;9.50;;
11052;SDS011;55230;42.602;23.470;2022-10-31T07:26:09;13.80;;;9.43;;
11052;SDS011;55230;42.602;23.470;2022-10-31T07:28:36;11.47;;;8.57;;
11052;SDS011;55230;42.602;23.470;2022-10-31T07:31:04;13.87;;;9.50;;
11052;SDS011;55230;42.602;23.470;2022-10-31T07:33:31;12.10;;;8.70;;
11052;SDS011;55230;42.602;23.470;2022-10-31T07:35:58;13.47;;;9.43;;
11052;SDS011;55230;42.602;23.470;2022-10-31T07:38:26;13.30;;;9.03;;
11052;SDS011;55230;42.602;23.470;2022-10-31T07:40:53;15.17;;;8.97;;
11052;SDS011;55230;42.602;23.470;2022-10-31T07:43:19;12.67;;;9.27;;
11052;SDS011;55230;42.602;23.470;2022-10-31T07:45:50;12.63;;;9.70;;
11052;SDS011;55230;42.602;23.470;2022-10-31T07:48:20;14.73;;;8.93;;
11052;SDS011;55230;42.602;23.470;2022-10-31T07:50:47;13.10;;;9.10;;
11052;SDS011;55230;42.602;23.470;2022-10-31T07:53:14;12.27;;;9.50;;
11052;SDS011;55230;42.602;23.470;2022-10-31T07:55:41;15.43;;;10.03;;
11052;SDS011;55230;42.602;23.470;2022-10-31T07:58:08;11.87;;;9.03;;
11052;SDS011;55230;42.602;23.470;2022-10-31T08:00:37;12.00;;;8.97;;
11052;SDS011;55230;42.602;23.470;2022-10-31T08:03:05;13.67;;;9.00;;
11052;SDS011;55230;42.602;23.470;2022-10-31T08:05:35;13.80;;;9.03;;
11052;SDS011;55230;42.602;23.470;2022-10-31T08:08:02;10.87;;;8.73;;
11052;SDS011;55230;42.602;23.470;2022-10-31T08:10:29;13.27;;;9.23;;
11052;SDS011;55230;42.602;23.470;2022-10-31T08:12:57;12.50;;;8.83;;
11052;SDS011;55230;42.602;23.470;2022-10-31T08:15:25;11.50;;;9.13;;
11052;SDS011;55230;42.602;23.470;2022-10-31T08:17:52;14.43;;;8.97;;
11052;SDS011;55230;42.602;23.470;2022-10-31T08:20:19;16.40;;;9.60;;
11052;SDS011;55230;42.602;23.470;2022-10-31T08:22:54;13.00;;;9.10;;
11052;SDS011;55230;42.602;23.470;2022-10-31T08:25:21;15.40;;;9.10;;
11052;SDS011;55230;42.602;23.470;2022-10-31T08:27:49;15.80;;;9.37;;
11052;SDS011;55230;42.602;23.470;2022-10-31T08:30:16;16.80;;;9.50;;
11052;SDS011;55230;42.602;23.470;2022-10-31T08:32:44;16.23;;;9.00;;
11052;SDS011;55230;42.602;23.470;2022-10-31T08:35:10;16.90;;;9.73;;
11052;SDS011;55230;42.602;23.470;2022-10-31T08:37:37;13.73;;;9.27;;
11052;SDS011;55230;42.602;23.470;2022-10-31T08:40:06;13.07;;;8.67;;
11052;SDS011;55230;42.602;23.470;2022-10-31T08:42:33;12.33;;;9.10;;
11052;SDS011;55230;42.602;23.470;2022-10-31T08:45:00;13.53;;;8.80;;
11052;SDS011;55230;42.602;23.470;2022-10-31T08:47:27;13.73;;;8.33;;
11052;SDS011;55230;42.602;23.470;2022-10-31T08:49:54;12.20;;;9.20;;
11052;SDS011;55230;42.602;23.470;2022-10-31T08:52:22;11.10;;;7.67;;
11052;SDS011;55230;42.602;23.470;2022-10-31T08:54:50;11.70;;;7.70;;
11052;SDS011;55230;42.602;23.470;2022-10-31T08:57:18;15.97;;;7.80;;
11052;SDS011;55230;42.602;23.470;2022-10-31T08:59:45;13.43;;;8.33;;
11052;SDS011;55230;42.602;23.470;2022-10-31T09:02:11;11.07;;;7.80;;
11052;SDS011;55230;42.602;23.470;2022-10-31T09:04:38;12.83;;;8.87;;
11052;SDS011;55230;42.602;23.470;2022-10-31T09:07:05;10.83;;;7.80;;
11052;SDS011;55230;42.602;23.470;2022-10-31T09:09:32;10.40;;;7.60;;
11052;SDS011;55230;42.602;23.470;2022-10-31T09:11:58;12.07;;;8.00;;
11052;SDS011;55230;42.602;23.470;2022-10-31T09:14:26;12.03;;;8.50;;
11052;SDS011;55230;42.602;23.470;2022-10-31T09:16:53;14.37;;;8.00;;
11052;SDS011;55230;42.602;23.470;2022-10-31T09:19:20;13.67;;;7.57;;
11052;SDS011;55230;42.602;23.470;2022-10-31T09:21:47;16.53;;;9.03;;
11052;SDS011;55230;42.602;23.470;2022-10-31T09:24:13;17.40;;;8.70;;
11052;SDS011;55230;42.602;23.470;2022-10-31T09:26:40;13.10;;;8.27;;
11052;SDS011;55230;42.602;23.470;2022-10-31T09:29:07;14.53;;;8.77;;
11052;SDS011;55230;42.602;23.470;2022-10-31T09:31:35;14.23;;;8.53;;
11052;SDS011;55230;42.602;23.470;2022-10-31T09:34:02;15.63;;;8.47;;
11052;SDS011;55230;42.602;23.470;2022-10-31T09:36:29;12.47;;;8.37;;
11052;SDS011;55230;42.602;23.470;2022-10-31T09:38:56;13.53;;;8.17;;
11052;SDS011;55230;42.602;23.470;2022-10-31T09:41:24;12.60;;;8.23;;
11052;SDS011;55230;42.602;23.470;2022-10-31T09:43:59;14.80;;;8.20;;
11052;SDS011;55230;42.602;23.470;2022-10-31T09:46:38;10.17;;;8.10;;
11052;SDS011;55230;42.602;23.470;2022-10-31T09:49:23;16.60;;;8.80;;
11052;SDS011;55230;42.602;23.470;2022-10-31T09:52:01;14.67;;;8.27;;
11052;SDS011;55230;42.602;23.470;2022-10-31T09:54:32;13.77;;;7.77;;
11052;SDS011;55230;42.602;23.470;2022-10-31T09:57:04;14.43;;;7.47;;
11052;SDS011;55230;42.602;23.470;2022-10-31T09:59:38;11.47;;;7.30;;
11052;SDS011;55230;42.602;23.470;2022-10-31T10:02:12;13.57;;;7.27;;
11052;SDS011;55230;42.602;23.470;2022-10-31T10:04:44;13.47;;;6.30;;
11052;SDS011;55230;42.602;23.470;2022-10-31T10:07:20;12.20;;;7.10;;
11052;SDS011;55230;42.602;23.470;2022-10-31T10:09:51;15.07;;;6.70;;
11052;SDS011;55230;42.602;23.470;2022-10-31T10:12:21;8.87;;;5.77;;
11052;SDS011;55230;42.602;23.470;2022-10-31T10:15:14;9.90;;;5.83;;
11052;SDS011;55230;42.602;23.470;2022-10-31T10:17:56;9.77;;;6.60;;
11052;SDS011;55230;42.602;23.470;2022-10-31T10:20:32;8.27;;;5.83;;
11052;SDS011;55230;42.602;23.470;2022-10-31T10:23:11;11.33;;;6.00;;
11052;SDS011;55230;42.602;23.470;2022-10-31T10:25:52;11.77;;;5.93;;
11052;SDS011;55230;42.602;23.470;2022-10-31T10:28:28;10.37;;;6.23;;
11052;SDS011;55230;42.602;23.470;2022-10-31T10:31:03;11.47;;;6.63;;
11052;SDS011;55230;42.602;23.470;2022-10-31T10:33:35;8.00;;;5.07;;
11052;SDS011;55230;42.602;23.470;2022-10-31T10:36:08;5.67;;;3.70;;
11052;SDS011;55230;42.602;23.470;2022-10-31T10:38:48;5.00;;;3.83;;
11052;SDS011;55230;42.602;23.470;2022-10-31T10:41:19;11.13;;;4.17;;
11052;SDS011;55230;42.602;23.470;2022-10-31T10:43:48;8.97;;;3.80;;
11052;SDS011;55230;42.602;23.470;2022-10-31T10:46:19;6.70;;;4.17;;
11052;SDS011;55230;42.602;23.470;2022-10-31T10:49:15;10.43;;;4.70;;
11052;SDS011;55230;42.602;23.470;2022-10-31T10:51:44;9.47;;;4.20;;
11052;SDS011;55230;42.602;23.470;2022-10-31T10:54:18;6.30;;;4.37;;
11052;SDS011;55230;42.602;23.470;2022-10-31T10:57:06;7.60;;;3.87;;
11052;SDS011;55230;42.602;23.470;2022-10-31T10:59:39;10.07;;;4.87;;
11052;SDS011;55230;42.602;23.470;2022-10-31T11:02:13;6.73;;;4.00;;
11052;SDS011;55230;42.602;23.470;2022-10-31T11:04:45;6.83;;;4.17;;
11052;SDS011;55230;42.602;23.470;2022-10-31T11:07:15;7.20;;;4.27;;
11052;SDS011;55230;42.602;23.470;2022-10-31T11:09:41;7.03;;;4.40;;
11052;SDS011;55230;42.602;23.470;2022-10-31T11:12:09;6.27;;;4.00;;
11052;SDS011;55230;42.602;23.470;2022-10-31T11:14:42;8.07;;;4.10;;
11052;SDS011;55230;42.602;23.470;2022-10-31T11:17:17;7.97;;;3.90;;
11052;SDS011;55230;42.602;23.470;2022-10-31T11:20:02;6.97;;;4.10;;
11052;SDS011;55230;42.602;23.470;2022-10-31T11:22:31;6.83;;;3.93;;
11052;SDS011;55230;42.602;23.470;2022-10-31T11:24:58;9.33;;;4.27;;
11052;SDS011;55230;42.602;23.470;2022-10-31T11:27:25;8.17;;;4.67;;
11052;SDS011;55230;42.602;23.470;2022-10-31T11:29:52;6.33;;;4.40;;
11052;SDS011;55230;42.602;23.470;2022-10-31T11:32:29;6.00;;;4.40;;
11052;SDS011;55230;42.602;23.470;2022-10-31T11:34:57;6.40;;;4.33;;
11052;SDS011;55230;42.602;23.470;2022-10-31T11:37:28;10.87;;;4.77;;
11052;SDS011;55230;42.602;23.470;2022-10-31T11:39:57;6.47;;;4.67;;
11052;SDS011;55230;42.602;23.470;2022-10-31T11:42:28;6.37;;;4.47;;
11052;SDS011;55230;42.602;23.470;2022-10-31T11:45:01;5.70;;;4.13;;
11052;SDS011;55230;42.602;23.470;2022-10-31T11:47:33;8.93;;;4.40;;
11052;SDS011;55230;42.602;23.470;2022-10-31T11:50:02;7.07;;;4.23;;
11052;SDS011;55230;42.602;23.470;2022-10-31T11:52:38;5.13;;;3.33;;
11052;SDS011;55230;42.602;23.470;2022-10-31T11:55:14;6.47;;;3.90;;
11052;SDS011;55230;42.602;23.470;2022-10-31T11:57:44;4.83;;;3.20;;
11052;SDS011;55230;42.602;23.470;2022-10-31T12:00:19;7.80;;;3.53;;
11052;SDS011;55230;42.602;23.470;2022-10-31T12:02:47;8.90;;;3.73;;
11052;SDS011;55230;42.602;23.470;2022-10-31T12:05:17;4.87;;;3.20;;
11052;SDS011;55230;42.602;23.470;2022-10-31T12:07:47;5.30;;;3.60;;
11052;SDS011;55230;42.602;23.470;2022-10-31T12:10:15;4.23;;;3.37;;
11052;SDS011;55230;42.602;23.470;2022-10-31T12:15:32;9.37;;;3.73;;
11052;SDS011;55230;42.602;23.470;2022-10-31T12:18:17;9.57;;;3.60;;
11052;SDS011;55230;42.602;23.470;2022-10-31T12:20:57;6.40;;;3.27;;
11052;SDS011;55230;42.602;23.470;2022-10-31T12:23:38;6.27;;;3.37;;
11052;SDS011;55230;42.602;23.470;2022-10-31T12:26:16;6.50;;;3.47;;
11052;SDS011;55230;42.602;23.470;2022-10-31T12:28:52;7.33;;;3.60;;
11052;SDS011;55230;42.602;23.470;2022-10-31T12:31:32;6.77;;;3.47;;
11052;SDS011;55230;42.602;23.470;2022-10-31T12:34:19;8.90;;;3.50;;
11052;SDS011;55230;42.602;23.470;2022-10-31T12:37:13;8.53;;;3.57;;
11052;SDS011;55230;42.602;23.470;2022-10-31T12:39:53;8.20;;;3.57;;
11052;SDS011;55230;42.602;23.470;2022-10-31T12:42:35;7.00;;;3.33;;
11052;SDS011;55230;42.602;23.470;2022-10-31T12:45:28;6.77;;;3.63;;
11052;SDS011;55230;42.602;23.470;2022-10-31T12:48:21;7.83;;;3.63;;
11052;SDS011;55230;42.602;23.470;2022-10-31T12:50:59;7.73;;;3.90;;
11052;SDS011;55230;42.602;23.470;2022-10-31T12:53:38;5.37;;;3.83;;
11052;SDS011;55230;42.602;23.470;2022-10-31T12:56:21;9.63;;;3.70;;
11052;SDS011;55230;42.602;23.470;2022-10-31T12:58:56;8.97;;;3.90;;
11052;SDS011;55230;42.602;23.470;2022-10-31T13:01:30;5.95;;;3.60;;
11052;SDS011;55230;42.602;23.470;2022-10-31T13:04:02;6.30;;;3.13;;
11052;SDS011;55230;42.602;23.470;2022-10-31T13:06:33;10.13;;;3.50;;
11052;SDS011;55230;42.602;23.470;2022-10-31T13:09:05;6.32;;;3.72;;
11052;SDS011;55230;42.602;23.470;2022-10-31T13:11:39;5.95;;;3.85;;
11052;SDS011;55230;42.602;23.470;2022-10-31T13:14:11;15.88;;;5.30;;
11052;SDS011;55230;42.602;23.470;2022-10-31T13:16:45;20.95;;;5.45;;
11052;SDS011;55230;42.602;23.470;2022-10-31T13:19:14;10.75;;;3.80;;
11052;SDS011;55230;42.602;23.470;2022-10-31T13:21:47;7.90;;;3.65;;
11052;SDS011;55230;42.602;23.470;2022-10-31T13:24:21;7.60;;;3.33;;
11052;SDS011;55230;42.602;23.470;2022-10-31T13:26:56;6.90;;;3.03;;
11052;SDS011;55230;42.602;23.470;2022-10-31T13:29:28;12.20;;;3.37;;
11052;SDS011;55230;42.602;23.470;2022-10-31T13:31:58;4.77;;;3.20;;
11052;SDS011;55230;42.602;23.470;2022-10-31T13:34:28;7.67;;;3.23;;
11052;SDS011;55230;42.602;23.470;2022-10-31T13:37:01;7.47;;;3.40;;
11052;SDS011;55230;42.602;23.470;2022-10-31T13:39:38;7.83;;;3.50;;
11052;SDS011;55230;42.602;23.470;2022-10-31T13:42:17;6.50;;;3.33;;
11052;SDS011;55230;42.602;23.470;2022-10-31T13:44:49;7.47;;;3.50;;
11052;SDS011;55230;42.602;23.470;2022-10-31T13:47:22;7.67;;;3.40;;
11052;SDS011;55230;42.602;23.470;2022-10-31T13:49:51;5.00;;;3.57;;
11052;SDS011;55230;42.602;23.470;2022-10-31T13:52:22;5.33;;;3.60;;
11052;SDS011;55230;42.602;23.470;2022-10-31T13:54:51;10.60;;;4.00;;
11052;SDS011;55230;42.602;23.470;2022-10-31T13:57:25;11.77;;;4.03;;
11052;SDS011;55230;42.602;23.470;2022-10-31T13:59:58;11.43;;;4.60;;
11052;SDS011;55230;42.602;23.470;2022-10-31T14:02:28;7.67;;;4.10;;
11052;SDS011;55230;42.602;23.470;2022-10-31T14:04:58;12.30;;;3.70;;
11052;SDS011;55230;42.602;23.470;2022-10-31T14:07:27;8.37;;;3.40;;
11052;SDS011;55230;42.602;23.470;2022-10-31T14:09:56;8.00;;;3.40;;
11052;SDS011;55230;42.602;23.470;2022-10-31T14:12:28;10.77;;;3.60;;
11052;SDS011;55230;42.602;23.470;2022-10-31T14:14:58;7.77;;;3.47;;
11052;SDS011;55230;42.602;23.470;2022-10-31T14:17:31;9.80;;;3.90;;
11052;SDS011;55230;42.602;23.470;2022-10-31T14:20:21;9.73;;;4.00;;
11052;SDS011;55230;42.602;23.470;2022-10-31T14:22:52;11.57;;;4.60;;
11052;SDS011;55230;42.602;23.470;2022-10-31T14:25:26;17.40;;;4.27;;
11052;SDS011;55230;42.602;23.470;2022-10-31T14:27:59;23.13;;;10.33;;
11052;SDS011;55230;42.602;23.470;2022-10-31T14:30:27;34.83;;;17.17;;
11052;SDS011;55230;42.602;23.470;2022-10-31T14:32:57;21.77;;;10.40;;
11052;SDS011;55230;42.602;23.470;2022-10-31T14:35:28;42.90;;;21.37;;
11052;SDS011;55230;42.602;23.470;2022-10-31T14:38:16;32.17;;;17.10;;
11052;SDS011;55230;42.602;23.470;2022-10-31T14:41:08;37.93;;;13.70;;
11052;SDS011;55230;42.602;23.470;2022-10-31T14:43:55;35.10;;;10.00;;
11052;SDS011;55230;42.602;23.470;2022-10-31T14:46:41;20.53;;;6.80;;
11052;SDS011;55230;42.602;23.470;2022-10-31T14:52:08;13.37;;;5.40;;
11052;SDS011;55230;42.602;23.470;2022-10-31T14:54:41;6.10;;;4.00;;
11052;SDS011;55230;42.602;23.470;2022-10-31T14:57:14;7.77;;;4.43;;
11052;SDS011;55230;42.602;23.470;2022-10-31T14:59:46;8.50;;;3.70;;
11052;SDS011;55230;42.602;23.470;2022-10-31T15:02:24;6.60;;;4.13;;